createdAt,value
2019-05-29T00:01:14.065Z,14.50
2019-05-29T00:02:42.565Z,14.60
2019-05-29T00:04:14.679Z,14.50
2019-05-29T00:05:46.981Z,14.50
2019-05-29T00:07:19.235Z,14.50
2019-05-29T00:08:51.367Z,14.50
2019-05-29T00:10:23.528Z,14.50
2019-05-29T00:11:55.609Z,14.50
2019-05-29T00:13:27.728Z,14.50
2019-05-29T00:14:59.864Z,14.50
2019-05-29T00:16:32.055Z,14.50
2019-05-29T00:18:04.328Z,14.50
2019-05-29T00:19:36.544Z,14.40
2019-05-29T00:21:08.895Z,14.40
2019-05-29T00:22:41.034Z,14.40
2019-05-29T00:24:13.244Z,14.40
2019-05-29T00:25:45.339Z,14.40
2019-05-29T00:27:17.823Z,14.40
2019-05-29T00:28:50.185Z,14.40
2019-05-29T00:30:22.436Z,14.40
2019-05-29T00:31:54.575Z,14.30
2019-05-29T00:33:26.736Z,14.30
2019-05-29T00:34:59.082Z,14.30
2019-05-29T00:36:31.256Z,14.20
2019-05-29T00:38:03.634Z,14.20
2019-05-29T00:39:36.097Z,14.20
2019-05-29T00:41:08.818Z,14.20
2019-05-29T00:42:41.073Z,14.20
2019-05-29T00:44:13.302Z,14.20
2019-05-29T00:45:45.507Z,14.20
2019-05-29T00:47:17.794Z,14.10
2019-05-29T00:48:50.068Z,14.10
2019-05-29T00:50:22.340Z,14.00
2019-05-29T00:51:54.502Z,14.00
2019-05-29T00:53:26.782Z,14.00
2019-05-29T00:54:59.039Z,14.00
2019-05-29T00:56:31.297Z,14.00
2019-05-29T00:58:03.574Z,14.00
2019-05-29T00:59:35.651Z,14.00
2019-05-29T01:01:09.236Z,13.90
2019-05-29T01:02:41.629Z,13.90
2019-05-29T01:04:13.809Z,13.90
2019-05-29T01:05:45.904Z,13.90
2019-05-29T01:07:18.369Z,13.90
2019-05-29T01:08:50.786Z,13.90
2019-05-29T01:10:22.899Z,13.90
2019-05-29T01:11:55.137Z,13.90
2019-05-29T01:13:27.235Z,13.90
2019-05-29T01:14:59.365Z,13.80
2019-05-29T01:16:31.476Z,13.80
2019-05-29T01:18:03.607Z,13.80
2019-05-29T01:19:35.870Z,13.80
2019-05-29T01:21:08.195Z,13.80
2019-05-29T01:22:40.449Z,13.80
2019-05-29T01:24:12.584Z,13.80
2019-05-29T01:25:44.887Z,13.80
2019-05-29T01:27:17.076Z,13.80
2019-05-29T01:28:49.346Z,13.80
2019-05-29T01:30:21.599Z,13.80
2019-05-29T01:31:53.871Z,13.80
2019-05-29T01:33:26.095Z,13.80
2019-05-29T01:34:58.204Z,13.80
2019-05-29T01:36:30.459Z,13.80
2019-05-29T01:38:02.594Z,13.80
2019-05-29T01:39:34.825Z,13.80
2019-05-29T01:41:07.114Z,13.80
2019-05-29T01:42:39.358Z,13.90
2019-05-29T01:44:11.501Z,13.90
2019-05-29T01:45:43.588Z,13.90
2019-05-29T01:47:15.726Z,13.80
2019-05-29T01:48:47.827Z,13.90
2019-05-29T01:50:20.071Z,13.80
2019-05-29T01:51:52.221Z,13.80
2019-05-29T01:53:24.369Z,13.90
2019-05-29T01:54:56.469Z,13.80
2019-05-29T01:56:28.726Z,13.80
2019-05-29T01:58:00.986Z,13.90
2019-05-29T01:59:33.231Z,13.90
2019-05-29T02:01:05.357Z,13.90
2019-05-29T02:02:37.498Z,13.90
2019-05-29T02:04:09.708Z,13.90
2019-05-29T02:05:41.808Z,13.90
2019-05-29T02:07:14.021Z,13.90
2019-05-29T02:08:46.294Z,13.90
2019-05-29T02:10:18.546Z,13.90
2019-05-29T02:11:50.770Z,13.90
2019-05-29T02:13:23.550Z,13.90
2019-05-29T02:14:55.855Z,13.90
2019-05-29T02:16:27.915Z,13.90
2019-05-29T02:18:00.180Z,13.90
2019-05-29T02:19:32.306Z,13.90
2019-05-29T02:21:04.555Z,13.90
2019-05-29T02:22:36.803Z,13.90
2019-05-29T02:24:09.052Z,13.90
2019-05-29T02:25:41.130Z,13.90
2019-05-29T02:27:13.353Z,13.90
2019-05-29T02:28:45.625Z,13.90
2019-05-29T02:30:20.351Z,13.90
2019-05-29T02:31:52.382Z,13.90
2019-05-29T02:33:26.152Z,13.80
2019-05-29T02:34:58.620Z,13.80
2019-05-29T02:36:30.831Z,13.90
2019-05-29T02:38:03.077Z,13.90
2019-05-29T02:39:35.282Z,13.90
2019-05-29T02:41:07.672Z,13.90
2019-05-29T02:42:40.111Z,13.90
2019-05-29T02:44:12.500Z,13.80
2019-05-29T02:45:54.236Z,13.90
2019-05-29T02:47:19.371Z,13.80
2019-05-29T02:48:51.745Z,13.80
2019-05-29T02:50:24.188Z,13.90
2019-05-29T02:51:58.137Z,13.80
2019-05-29T02:53:30.869Z,13.90
2019-05-29T02:55:04.437Z,13.80
2019-05-29T02:56:36.673Z,13.90
2019-05-29T02:58:09.002Z,13.80
2019-05-29T02:59:41.268Z,13.80
2019-05-29T03:01:13.391Z,13.80
2019-05-29T03:02:45.515Z,13.80
2019-05-29T03:04:17.631Z,13.80
2019-05-29T03:05:50.182Z,13.80
2019-05-29T03:07:24.310Z,13.80
2019-05-29T03:08:56.601Z,13.80
2019-05-29T03:10:28.827Z,13.80
2019-05-29T03:12:00.916Z,13.80
2019-05-29T03:13:33.641Z,13.80
2019-05-29T03:15:06.290Z,13.80
2019-05-29T03:16:38.625Z,13.80
2019-05-29T03:18:10.834Z,13.80
2019-05-29T03:19:43.090Z,13.80
2019-05-29T03:21:15.185Z,13.80
2019-05-29T03:22:47.298Z,13.80
2019-05-29T03:24:19.483Z,13.80
2019-05-29T03:25:51.570Z,13.70
2019-05-29T03:27:23.628Z,13.80
2019-05-29T03:28:55.767Z,13.80
2019-05-29T03:30:31.666Z,13.70
2019-05-29T03:32:02.029Z,13.70
2019-05-29T03:33:41.165Z,13.80
2019-05-29T03:35:08.593Z,13.70
2019-05-29T03:36:47.358Z,13.80
2019-05-29T03:38:15.183Z,13.70
2019-05-29T03:39:47.287Z,13.70
2019-05-29T03:41:19.461Z,13.70
2019-05-29T03:42:51.692Z,13.70
2019-05-29T03:44:23.963Z,13.80
2019-05-29T03:45:56.024Z,13.70
2019-05-29T03:47:28.745Z,13.80
2019-05-29T03:49:01.191Z,13.80
2019-05-29T03:50:34.914Z,13.70
2019-05-29T03:52:07.275Z,13.80
2019-05-29T03:53:39.476Z,13.70
2019-05-29T03:55:11.823Z,13.80
2019-05-29T03:56:43.968Z,13.70
2019-05-29T03:58:16.214Z,13.80
2019-05-29T03:59:48.317Z,13.70
2019-05-29T04:01:20.556Z,13.70
2019-05-29T04:02:52.795Z,13.70
2019-05-29T04:04:24.931Z,13.70
2019-05-29T04:05:57.081Z,13.70
2019-05-29T04:07:29.356Z,13.70
2019-05-29T04:09:02.340Z,13.80
2019-05-29T04:10:37.165Z,13.70
2019-05-29T04:12:08.754Z,13.80
2019-05-29T04:13:40.836Z,13.80
2019-05-29T04:15:13.186Z,13.80
2019-05-29T04:16:58.966Z,13.80
2019-05-29T04:18:21.582Z,13.80
2019-05-29T04:19:54.573Z,13.80
2019-05-29T04:21:38.883Z,13.80
2019-05-29T04:23:11.346Z,13.80
2019-05-29T04:24:44.794Z,13.80
2019-05-29T04:26:18.661Z,13.80
2019-05-29T04:27:51.125Z,13.80
2019-05-29T04:29:23.887Z,13.80
2019-05-29T04:30:56.233Z,13.80
2019-05-29T04:32:29.845Z,13.80
2019-05-29T04:34:02.219Z,13.80
2019-05-29T04:35:34.677Z,13.80
2019-05-29T04:37:07.629Z,13.80
2019-05-29T04:38:40.516Z,13.80
2019-05-29T04:40:12.851Z,13.80
2019-05-29T04:41:45.101Z,13.80
2019-05-29T04:43:17.393Z,13.80
2019-05-29T04:44:49.626Z,13.80
2019-05-29T04:46:21.978Z,13.80
2019-05-29T04:47:54.340Z,13.80
2019-05-29T04:49:26.513Z,13.80
2019-05-29T04:50:58.755Z,13.80
2019-05-29T04:52:31.366Z,13.80
2019-05-29T04:54:03.894Z,13.80
2019-05-29T04:55:37.018Z,13.80
2019-05-29T04:57:09.489Z,13.80
2019-05-29T04:58:41.613Z,13.80
2019-05-29T05:00:13.690Z,13.80
2019-05-29T05:01:45.905Z,13.80
2019-05-29T05:03:18.013Z,13.80
2019-05-29T05:04:50.268Z,13.80
2019-05-29T05:06:22.405Z,13.80
2019-05-29T05:07:54.614Z,13.80
2019-05-29T05:09:26.886Z,13.80
2019-05-29T05:10:59.320Z,13.80
2019-05-29T05:12:31.612Z,13.80
2019-05-29T05:14:03.971Z,13.80
2019-05-29T05:15:37.836Z,13.80
2019-05-29T05:17:25.202Z,13.80
2019-05-29T05:18:44.548Z,13.80
2019-05-29T05:20:16.676Z,13.90
2019-05-29T05:21:48.975Z,13.90
2019-05-29T05:23:21.195Z,13.90
2019-05-29T05:24:53.315Z,13.90
2019-05-29T05:26:25.616Z,14.00
2019-05-29T05:27:57.703Z,14.00
2019-05-29T05:29:30.159Z,14.00
2019-05-29T05:31:02.437Z,14.00
2019-05-29T05:32:34.877Z,14.00
2019-05-29T05:34:07.215Z,14.00
2019-05-29T05:35:39.326Z,14.00
2019-05-29T05:37:11.510Z,14.00
2019-05-29T05:38:44.457Z,14.00
2019-05-29T05:40:16.668Z,14.00
2019-05-29T05:41:49.192Z,14.00
2019-05-29T05:43:24.479Z,14.00
2019-05-29T05:44:55.937Z,14.00
2019-05-29T05:46:28.171Z,14.00
2019-05-29T05:48:00.277Z,14.00
2019-05-29T05:49:33.225Z,14.00
2019-05-29T05:51:05.472Z,14.10
2019-05-29T05:52:37.789Z,14.10
2019-05-29T05:54:09.888Z,14.10
2019-05-29T05:55:41.965Z,14.10
2019-05-29T05:57:14.198Z,14.10
2019-05-29T05:58:46.527Z,14.20
2019-05-29T06:00:28.921Z,14.20
2019-05-29T06:02:01.236Z,14.20
2019-05-29T06:03:33.948Z,14.30
2019-05-29T06:05:06.759Z,14.30
2019-05-29T06:06:40.158Z,14.40
2019-05-29T06:08:12.655Z,14.40
2019-05-29T06:09:44.892Z,14.40
2019-05-29T06:11:17.046Z,14.40
2019-05-29T06:12:49.283Z,14.40
2019-05-29T06:14:21.532Z,14.40
2019-05-29T06:15:53.633Z,14.40
2019-05-29T06:17:25.865Z,14.50
2019-05-29T06:18:58.133Z,14.60
2019-05-29T06:20:30.360Z,14.70
2019-05-29T06:22:02.543Z,14.90
2019-05-29T06:23:34.865Z,15.10
2019-05-29T06:25:07.417Z,15.20
2019-05-29T06:26:39.655Z,15.40
2019-05-29T06:28:11.907Z,15.60
2019-05-29T06:29:43.995Z,15.70
2019-05-29T06:31:16.242Z,15.80
2019-05-29T06:32:48.371Z,15.80
2019-05-29T06:34:20.476Z,15.90
2019-05-29T06:35:52.776Z,15.90
2019-05-29T06:37:24.993Z,15.90
2019-05-29T06:38:57.074Z,16.00
2019-05-29T06:40:33.920Z,16.10
2019-05-29T06:42:06.439Z,16.10
2019-05-29T06:43:39.829Z,16.10
2019-05-29T06:45:14.328Z,16.20
2019-05-29T06:46:46.692Z,16.20
2019-05-29T06:48:40.531Z,16.20
2019-05-29T06:49:57.520Z,16.30
2019-05-29T06:51:29.613Z,16.30
2019-05-29T06:53:01.990Z,16.30
2019-05-29T06:54:35.649Z,16.30
2019-05-29T06:56:07.860Z,16.30
2019-05-29T06:57:40.307Z,16.40
2019-05-29T06:59:12.590Z,16.50
2019-05-29T07:00:44.939Z,16.50
2019-05-29T07:02:17.102Z,16.60
2019-05-29T07:03:49.247Z,16.70
2019-05-29T07:05:21.390Z,16.80
2019-05-29T07:06:53.675Z,16.80
2019-05-29T07:08:38.051Z,16.90
2019-05-29T07:10:00.134Z,17.00
2019-05-29T07:11:32.348Z,17.00
2019-05-29T07:13:04.829Z,17.10
2019-05-29T07:14:38.107Z,17.20
2019-05-29T07:16:10.380Z,17.30
2019-05-29T07:17:42.609Z,17.30
2019-05-29T07:19:47.568Z,17.40
2019-05-29T07:20:49.030Z,17.40
2019-05-29T07:22:21.207Z,17.50
2019-05-29T07:23:53.346Z,17.60
2019-05-29T07:25:25.599Z,17.70
2019-05-29T07:26:57.774Z,17.90
2019-05-29T07:28:30.055Z,18.20
2019-05-29T07:30:02.202Z,18.40
2019-05-29T07:31:34.348Z,18.70
2019-05-29T07:33:06.605Z,19.10
2019-05-29T07:34:51.342Z,19.50
2019-05-29T07:36:12.840Z,19.90
2019-05-29T07:37:45.964Z,20.30
2019-05-29T07:39:18.442Z,20.70
2019-05-29T07:40:50.709Z,21.20
2019-05-29T07:42:22.969Z,21.40
2019-05-29T07:43:55.179Z,21.50
2019-05-29T07:45:27.400Z,21.40
2019-05-29T07:46:59.564Z,21.40
2019-05-29T07:48:31.667Z,21.40
2019-05-29T07:50:03.982Z,21.40
2019-05-29T07:51:36.074Z,21.40
2019-05-29T07:53:08.162Z,21.50
2019-05-29T07:54:41.572Z,21.60
2019-05-29T07:56:22.599Z,21.70
2019-05-29T07:57:48.942Z,21.70
2019-05-29T07:59:21.359Z,21.60
2019-05-29T08:01:11.722Z,21.60
2019-05-29T08:02:27.706Z,21.80
2019-05-29T08:03:59.935Z,21.90
2019-05-29T08:05:32.206Z,22.10
2019-05-29T08:07:04.456Z,22.30
2019-05-29T08:08:36.599Z,22.60
2019-05-29T08:10:09.049Z,22.80
2019-05-29T08:11:41.547Z,22.90
2019-05-29T08:13:13.783Z,22.90
2019-05-29T08:14:45.980Z,22.80
2019-05-29T08:16:18.229Z,22.60
2019-05-29T08:17:50.342Z,22.40
2019-05-29T08:19:23.313Z,22.30
2019-05-29T08:20:55.430Z,22.10
2019-05-29T08:22:34.156Z,22.00
2019-05-29T08:24:01.602Z,21.90
2019-05-29T08:25:33.760Z,21.80
2019-05-29T08:27:06.009Z,21.90
2019-05-29T08:28:38.272Z,21.80
2019-05-29T08:30:10.542Z,21.80
2019-05-29T08:31:42.788Z,21.80
2019-05-29T08:33:15.088Z,21.80
2019-05-29T08:34:47.295Z,22.00
2019-05-29T08:36:19.527Z,22.30
2019-05-29T08:37:51.802Z,22.60
2019-05-29T08:39:35.355Z,22.90
2019-05-29T08:40:57.951Z,23.10
2019-05-29T08:42:30.220Z,23.30
2019-05-29T08:44:02.574Z,23.60
2019-05-29T08:45:34.799Z,23.60
2019-05-29T08:47:10.438Z,23.60
2019-05-29T08:48:41.770Z,23.50
2019-05-29T08:50:18.462Z,23.40
2019-05-29T08:51:48.429Z,23.20
2019-05-29T08:53:20.671Z,23.00
2019-05-29T08:54:52.930Z,22.70
2019-05-29T08:56:25.029Z,22.50
2019-05-29T08:57:57.134Z,22.30
2019-05-29T08:59:29.342Z,22.20
2019-05-29T09:01:01.623Z,22.30
2019-05-29T09:02:33.753Z,22.50
2019-05-29T09:04:05.905Z,22.70
2019-05-29T09:05:38.162Z,22.90
2019-05-29T09:07:10.429Z,23.20
2019-05-29T09:08:43.711Z,23.40
2019-05-29T09:10:16.881Z,23.60
2019-05-29T09:11:50.132Z,23.80
2019-05-29T09:13:22.993Z,23.90
2019-05-29T09:14:55.164Z,24.20
2019-05-29T09:16:27.443Z,24.40
2019-05-29T09:17:59.573Z,24.70
2019-05-29T09:19:31.685Z,24.90
2019-05-29T09:21:04.584Z,25.00
2019-05-29T09:22:36.837Z,25.10
2019-05-29T09:24:09.179Z,25.20
2019-05-29T09:25:41.561Z,25.20
2019-05-29T09:27:14.547Z,25.30
2019-05-29T09:28:47.637Z,25.30
2019-05-29T09:30:20.185Z,25.30
2019-05-29T09:31:52.879Z,25.40
2019-05-29T09:33:24.979Z,25.40
2019-05-29T09:34:57.128Z,25.60
2019-05-29T09:36:29.227Z,25.60
2019-05-29T09:38:01.345Z,25.70
2019-05-29T09:39:33.561Z,25.70
2019-05-29T09:41:05.707Z,25.80
2019-05-29T09:42:37.829Z,25.90
2019-05-29T09:44:25.117Z,26.00
2019-05-29T09:45:44.202Z,26.10
2019-05-29T09:47:17.259Z,26.00
2019-05-29T09:48:50.592Z,26.00
2019-05-29T09:50:23.934Z,26.00
2019-05-29T09:51:57.853Z,26.00
2019-05-29T09:53:30.370Z,26.00
2019-05-29T09:55:02.681Z,26.00
2019-05-29T09:56:34.983Z,25.90
2019-05-29T09:58:07.221Z,25.90
2019-05-29T09:59:39.336Z,25.90
2019-05-29T10:01:22.882Z,25.80
2019-05-29T10:02:45.613Z,25.70
2019-05-29T10:04:17.910Z,25.70
2019-05-29T10:05:50.130Z,25.60
2019-05-29T10:07:22.240Z,25.60
2019-05-29T10:08:56.053Z,25.50
2019-05-29T10:10:28.402Z,25.50
2019-05-29T10:12:04.896Z,25.60
2019-05-29T10:13:34.556Z,25.50
2019-05-29T10:15:07.086Z,25.40
2019-05-29T10:16:39.338Z,25.40
2019-05-29T10:18:30.663Z,25.30
2019-05-29T10:19:45.738Z,25.20
2019-05-29T10:21:17.857Z,25.10
2019-05-29T10:22:50.030Z,25.00
2019-05-29T10:24:22.268Z,24.80
2019-05-29T10:25:56.370Z,24.70
2019-05-29T10:27:28.602Z,24.50
2019-05-29T10:29:08.168Z,24.30
2019-05-29T10:30:35.023Z,24.10
2019-05-29T10:32:07.239Z,23.80
2019-05-29T10:33:39.497Z,23.60
2019-05-29T10:35:11.918Z,23.50
2019-05-29T10:36:47.880Z,23.40
2019-05-29T10:38:18.301Z,23.40
2019-05-29T10:39:51.003Z,23.50
2019-05-29T10:41:23.207Z,23.50
2019-05-29T10:42:55.371Z,23.50
2019-05-29T10:44:27.482Z,23.50
2019-05-29T10:45:59.645Z,23.40
2019-05-29T10:47:31.738Z,23.30
2019-05-29T10:49:04.887Z,23.20
2019-05-29T10:50:37.112Z,23.10
2019-05-29T10:52:16.190Z,23.00
2019-05-29T10:53:44.278Z,22.80
2019-05-29T10:55:19.530Z,22.80
2019-05-29T10:56:52.958Z,22.70
2019-05-29T10:58:25.298Z,22.70
2019-05-29T10:59:57.574Z,22.70
2019-05-29T11:01:29.676Z,22.70
2019-05-29T11:03:01.893Z,22.70
2019-05-29T11:04:34.055Z,22.70
2019-05-29T11:06:06.334Z,22.80
2019-05-29T11:07:38.539Z,22.90
2019-05-29T11:09:10.603Z,23.00
2019-05-29T11:10:42.996Z,23.00
2019-05-29T11:12:15.271Z,22.90
2019-05-29T11:13:48.543Z,23.00
2019-05-29T11:15:22.147Z,23.00
2019-05-29T11:16:55.090Z,23.00
2019-05-29T11:18:27.297Z,23.10
2019-05-29T11:19:59.369Z,23.10
2019-05-29T11:21:31.532Z,23.20
2019-05-29T11:23:03.799Z,23.20
2019-05-29T11:24:35.955Z,23.20
2019-05-29T11:26:08.212Z,23.20
2019-05-29T11:27:40.381Z,23.20
2019-05-29T11:29:12.439Z,23.20
2019-05-29T11:30:44.739Z,23.20
2019-05-29T11:32:16.993Z,23.30
2019-05-29T11:33:49.232Z,23.30
2019-05-29T11:35:21.397Z,23.20
2019-05-29T11:36:54.223Z,23.20
2019-05-29T11:38:26.667Z,23.10
2019-05-29T11:39:59.060Z,23.10
2019-05-29T11:41:31.481Z,22.90
2019-05-29T11:43:03.773Z,22.80
2019-05-29T11:44:36.005Z,22.60
2019-05-29T11:46:08.254Z,22.60
2019-05-29T11:47:40.417Z,22.60
2019-05-29T11:49:12.610Z,22.50
2019-05-29T11:50:44.751Z,22.50
2019-05-29T11:52:24.286Z,22.40
2019-05-29T11:53:51.505Z,22.40
2019-05-29T11:55:23.719Z,22.30
2019-05-29T11:56:57.248Z,22.20
2019-05-29T11:58:31.475Z,22.20
2019-05-29T12:00:17.043Z,22.20
2019-05-29T12:01:49.833Z,22.20
2019-05-29T12:03:13.720Z,22.20
2019-05-29T12:04:45.979Z,22.20
2019-05-29T12:06:18.224Z,22.20
2019-05-29T12:07:51.583Z,22.10
2019-05-29T12:09:32.928Z,22.00
2019-05-29T12:10:59.382Z,21.80
2019-05-29T12:12:31.772Z,21.70
2019-05-29T12:14:03.920Z,21.60
2019-05-29T12:15:36.217Z,21.50
2019-05-29T12:17:08.872Z,21.40
2019-05-29T12:18:40.984Z,21.30
2019-05-29T12:20:27.168Z,21.30
2019-05-29T12:21:48.282Z,21.20
2019-05-29T12:23:26.151Z,21.20
2019-05-29T12:24:54.580Z,21.20
2019-05-29T12:26:26.880Z,21.10
2019-05-29T12:27:59.358Z,21.10
2019-05-29T12:29:31.632Z,21.10
2019-05-29T12:31:03.958Z,21.00
2019-05-29T12:32:36.036Z,21.00
2019-05-29T12:34:18.926Z,20.90
2019-05-29T12:35:42.864Z,20.90
2019-05-29T12:37:15.128Z,20.80
2019-05-29T12:38:47.206Z,20.80
2019-05-29T12:40:19.307Z,20.70
2019-05-29T12:41:51.575Z,20.60
2019-05-29T12:43:27.595Z,20.60
2019-05-29T12:44:57.963Z,20.50
2019-05-29T12:46:30.296Z,20.50
2019-05-29T12:48:06.633Z,20.40
2019-05-29T12:49:36.674Z,20.40
2019-05-29T12:51:09.085Z,20.40
2019-05-29T12:52:41.305Z,20.30
2019-05-29T12:54:13.618Z,20.20
2019-05-29T12:55:45.722Z,20.20
2019-05-29T12:57:17.970Z,20.10
2019-05-29T12:58:50.061Z,20.20
2019-05-29T13:00:22.858Z,20.10
2019-05-29T13:01:56.186Z,20.10
2019-05-29T13:03:28.656Z,20.10
2019-05-29T13:05:08.938Z,20.00
2019-05-29T13:06:35.050Z,20.10
2019-05-29T13:08:07.307Z,20.10
2019-05-29T13:09:39.600Z,20.10
2019-05-29T13:11:11.754Z,20.10
2019-05-29T13:12:44.221Z,20.10
2019-05-29T13:14:16.588Z,20.10
2019-05-29T13:15:48.748Z,20.20
2019-05-29T13:17:20.991Z,20.30
2019-05-29T13:18:54.730Z,20.30
2019-05-29T13:20:27.240Z,20.40
2019-05-29T13:21:59.368Z,20.50
2019-05-29T13:23:44.344Z,20.60
2019-05-29T13:25:06.234Z,20.70
2019-05-29T13:26:38.488Z,20.80
2019-05-29T13:28:10.635Z,20.90
2019-05-29T13:29:42.931Z,21.00
2019-05-29T13:31:15.215Z,21.00
2019-05-29T13:32:47.515Z,21.10
2019-05-29T13:34:19.866Z,21.10
2019-05-29T13:35:52.032Z,21.10
2019-05-29T13:37:24.318Z,21.10
2019-05-29T13:38:56.569Z,21.10
2019-05-29T13:40:28.657Z,21.00
2019-05-29T13:42:05.695Z,20.90
2019-05-29T13:43:34.939Z,20.90
2019-05-29T13:45:17.876Z,20.80
2019-05-29T13:46:43.908Z,20.70
2019-05-29T13:48:16.119Z,20.70
2019-05-29T13:49:48.349Z,20.60
2019-05-29T13:51:20.472Z,20.50
2019-05-29T13:52:52.741Z,20.50
2019-05-29T13:54:24.863Z,20.50
2019-05-29T13:55:57.711Z,20.60
2019-05-29T13:57:30.126Z,20.60
2019-05-29T13:59:02.378Z,20.60
2019-05-29T14:00:35.172Z,20.60
2019-05-29T14:02:08.678Z,20.60
2019-05-29T14:03:41.892Z,20.60
2019-05-29T14:05:14.625Z,20.60
2019-05-29T14:06:46.993Z,20.50
2019-05-29T14:08:19.088Z,20.40
2019-05-29T14:09:51.220Z,20.40
2019-05-29T14:11:23.489Z,20.30
2019-05-29T14:12:55.798Z,20.30
2019-05-29T14:14:28.095Z,20.30
2019-05-29T14:16:00.584Z,20.40
2019-05-29T14:17:34.824Z,20.40
2019-05-29T14:19:07.003Z,20.40
2019-05-29T14:20:39.289Z,20.40
2019-05-29T14:22:11.431Z,20.50
2019-05-29T14:23:43.688Z,20.50
2019-05-29T14:25:16.105Z,20.50
2019-05-29T14:26:48.302Z,20.50
2019-05-29T14:28:20.437Z,20.50
2019-05-29T14:29:52.543Z,20.50
2019-05-29T14:31:24.676Z,20.50
2019-05-29T14:32:57.053Z,20.50
2019-05-29T14:34:29.311Z,20.40
2019-05-29T14:36:01.676Z,20.40
2019-05-29T14:37:33.942Z,20.30
2019-05-29T14:39:07.601Z,20.30
2019-05-29T14:40:39.999Z,20.20
2019-05-29T14:42:12.148Z,20.20
2019-05-29T14:43:44.330Z,20.10
2019-05-29T14:45:17.009Z,20.10
2019-05-29T14:46:49.334Z,20.00
2019-05-29T14:48:21.605Z,20.00
2019-05-29T14:49:53.860Z,19.90
2019-05-29T14:51:25.986Z,19.90
2019-05-29T14:52:58.219Z,19.90
2019-05-29T14:54:41.221Z,19.90
2019-05-29T14:56:04.631Z,19.90
2019-05-29T14:57:36.842Z,19.80
2019-05-29T14:59:09.447Z,19.80
2019-05-29T15:00:41.680Z,19.80
2019-05-29T15:02:21.715Z,19.80
2019-05-29T15:03:48.126Z,19.70
2019-05-29T15:05:21.316Z,19.70
2019-05-29T15:06:53.433Z,19.70
2019-05-29T15:08:25.547Z,19.70
2019-05-29T15:09:57.792Z,19.70
2019-05-29T15:11:29.936Z,19.70
2019-05-29T15:13:02.047Z,19.70
2019-05-29T15:14:37.310Z,19.60
2019-05-29T15:16:10.789Z,19.70
2019-05-29T15:17:43.110Z,19.70
2019-05-29T15:19:15.345Z,19.70
2019-05-29T15:20:47.745Z,19.60
2019-05-29T15:22:19.979Z,19.70
2019-05-29T15:23:52.291Z,19.60
2019-05-29T15:25:24.665Z,19.70
2019-05-29T15:26:57.084Z,19.70
2019-05-29T15:28:29.319Z,19.80
2019-05-29T15:30:01.547Z,19.80
2019-05-29T15:31:33.815Z,19.80
2019-05-29T15:33:06.411Z,19.80
2019-05-29T15:34:38.665Z,19.80
2019-05-29T15:36:10.789Z,19.90
2019-05-29T15:37:42.992Z,19.90
2019-05-29T15:39:15.238Z,19.90
2019-05-29T15:40:47.597Z,19.90
2019-05-29T15:42:19.930Z,19.90
2019-05-29T15:43:52.073Z,20.00
2019-05-29T15:45:24.305Z,20.00
2019-05-29T15:46:56.546Z,20.00
2019-05-29T15:48:28.665Z,20.00
2019-05-29T15:50:00.919Z,20.10
2019-05-29T15:51:33.202Z,20.10
2019-05-29T15:53:05.287Z,20.20
2019-05-29T15:54:37.438Z,20.20
2019-05-29T15:56:23.735Z,20.20
2019-05-29T15:57:43.742Z,20.20
2019-05-29T15:59:17.088Z,20.10
2019-05-29T16:00:50.116Z,20.10
2019-05-29T16:02:22.166Z,20.10
2019-05-29T16:03:54.235Z,20.10
2019-05-29T16:05:26.462Z,20.10
2019-05-29T16:06:58.763Z,20.00
2019-05-29T16:08:31.011Z,20.00
2019-05-29T16:10:04.570Z,20.00
2019-05-29T16:11:36.841Z,20.00
2019-05-29T16:13:08.965Z,19.90
2019-05-29T16:14:41.248Z,19.90
2019-05-29T16:16:13.486Z,19.90
2019-05-29T16:17:45.584Z,20.00
2019-05-29T16:19:18.377Z,20.00
2019-05-29T16:20:50.693Z,20.00
2019-05-29T16:22:23.027Z,19.90
2019-05-29T16:23:55.258Z,19.90
2019-05-29T16:25:39.480Z,19.90
2019-05-29T16:27:08.631Z,19.90
2019-05-29T16:28:36.230Z,19.90
2019-05-29T16:30:09.485Z,19.80
2019-05-29T16:31:41.736Z,19.70
2019-05-29T16:33:14.995Z,19.70
2019-05-29T16:34:47.557Z,19.70
2019-05-29T16:36:20.276Z,19.80
2019-05-29T16:37:52.534Z,19.60
2019-05-29T16:39:24.652Z,19.50
2019-05-29T16:40:56.897Z,19.50
2019-05-29T16:42:29.110Z,19.50
2019-05-29T16:44:01.282Z,19.50
2019-05-29T16:45:33.389Z,19.40
2019-05-29T16:47:07.498Z,19.40
2019-05-29T16:48:39.771Z,19.30
2019-05-29T16:50:13.046Z,19.30
2019-05-29T16:51:45.379Z,19.30
2019-05-29T16:53:18.836Z,19.30
2019-05-29T16:54:51.093Z,19.30
2019-05-29T16:56:23.480Z,19.30
2019-05-29T16:57:55.674Z,19.30
2019-05-29T16:59:29.761Z,19.30
2019-05-29T17:01:02.064Z,19.30
2019-05-29T17:02:34.221Z,19.30
2019-05-29T17:04:06.337Z,19.30
2019-05-29T17:05:38.637Z,19.30
2019-05-29T17:07:10.861Z,19.30
2019-05-29T17:08:42.963Z,19.30
2019-05-29T17:10:18.397Z,19.30
2019-05-29T17:11:50.812Z,19.30
2019-05-29T17:13:22.942Z,19.20
2019-05-29T17:14:55.035Z,19.20
2019-05-29T17:16:27.401Z,19.30
2019-05-29T17:17:59.564Z,19.30
2019-05-29T17:19:31.777Z,19.20
2019-05-29T17:21:04.264Z,19.20
2019-05-29T17:22:36.346Z,19.20
2019-05-29T17:24:08.622Z,19.20
2019-05-29T17:25:40.857Z,19.20
2019-05-29T17:27:13.136Z,19.30
2019-05-29T17:28:45.398Z,19.30
2019-05-29T17:30:22.954Z,19.30
2019-05-29T17:31:55.412Z,19.20
2019-05-29T17:33:27.512Z,19.20
2019-05-29T17:34:59.754Z,19.20
2019-05-29T17:36:31.911Z,19.20
2019-05-29T17:38:04.224Z,19.10
2019-05-29T17:39:36.378Z,19.10
2019-05-29T17:41:08.525Z,19.10
2019-05-29T17:42:40.758Z,19.10
2019-05-29T17:44:13.010Z,19.10
2019-05-29T17:45:45.283Z,19.10
2019-05-29T17:47:17.735Z,19.10
2019-05-29T17:48:50.092Z,19.10
2019-05-29T17:50:24.561Z,19.10
2019-05-29T17:51:56.431Z,19.10
2019-05-29T17:53:28.636Z,19.00
2019-05-29T17:55:00.740Z,19.00
2019-05-29T17:56:36.734Z,19.00
2019-05-29T17:58:07.165Z,19.00
2019-05-29T17:59:39.413Z,19.00
2019-05-29T18:01:11.657Z,19.00
2019-05-29T18:02:52.066Z,19.00
2019-05-29T18:04:18.111Z,19.00
2019-05-29T18:05:50.425Z,19.00
2019-05-29T18:07:22.733Z,19.00
2019-05-29T18:08:54.939Z,19.00
2019-05-29T18:10:27.257Z,19.00
2019-05-29T18:11:59.432Z,19.00
2019-05-29T18:13:31.755Z,19.00
2019-05-29T18:15:04.788Z,18.90
2019-05-29T18:16:37.008Z,18.90
2019-05-29T18:18:09.304Z,18.90
2019-05-29T18:19:41.450Z,18.90
2019-05-29T18:21:13.770Z,18.90
2019-05-29T18:22:46.058Z,18.90
2019-05-29T18:24:19.506Z,18.80
2019-05-29T18:25:51.827Z,18.80
2019-05-29T18:27:24.058Z,18.80
2019-05-29T18:28:56.312Z,18.80
2019-05-29T18:30:28.894Z,18.80
2019-05-29T18:32:01.332Z,18.70
2019-05-29T18:33:33.408Z,18.70
2019-05-29T18:35:06.068Z,18.60
2019-05-29T18:36:38.341Z,18.50
2019-05-29T18:38:10.665Z,18.50
2019-05-29T18:39:42.836Z,18.50
2019-05-29T18:41:14.980Z,18.40
2019-05-29T18:42:47.160Z,18.30
2019-05-29T18:44:20.656Z,18.30
2019-05-29T18:45:53.075Z,18.30
2019-05-29T18:47:25.407Z,18.20
2019-05-29T18:48:57.489Z,18.20
2019-05-29T18:50:29.745Z,18.10
2019-05-29T18:52:02.154Z,18.10
2019-05-29T18:53:34.424Z,18.00
2019-05-29T18:55:08.406Z,18.00
2019-05-29T18:56:40.671Z,18.00
2019-05-29T18:58:12.994Z,18.00
2019-05-29T18:59:45.098Z,18.00
2019-05-29T19:01:17.377Z,18.00
2019-05-29T19:02:49.520Z,17.90
2019-05-29T19:04:21.594Z,17.90
2019-05-29T19:05:53.923Z,17.90
2019-05-29T19:07:26.194Z,17.90
2019-05-29T19:08:58.485Z,17.80
2019-05-29T19:10:31.777Z,17.80
2019-05-29T19:12:04.204Z,17.70
2019-05-29T19:13:36.372Z,17.70
2019-05-29T19:15:10.054Z,17.60
2019-05-29T19:16:42.244Z,17.60
2019-05-29T19:18:14.462Z,17.60
2019-05-29T19:19:46.630Z,17.50
2019-05-29T19:21:18.841Z,17.50
2019-05-29T19:22:51.050Z,17.40
2019-05-29T19:24:24.460Z,17.40
2019-05-29T19:25:57.068Z,17.30
2019-05-29T19:27:37.484Z,17.30
2019-05-29T19:29:03.668Z,17.20
2019-05-29T19:30:35.908Z,17.20
2019-05-29T19:32:08.069Z,17.10
2019-05-29T19:33:40.495Z,17.10
2019-05-29T19:35:13.024Z,17.10
2019-05-29T19:36:45.312Z,17.10
2019-05-29T19:38:17.468Z,17.00
2019-05-29T19:39:49.734Z,17.00
2019-05-29T19:41:22.029Z,17.00
2019-05-29T19:42:54.848Z,16.90
2019-05-29T19:44:28.372Z,16.90
2019-05-29T19:46:00.752Z,16.90
2019-05-29T19:47:32.868Z,16.90
2019-05-29T19:49:04.999Z,16.90
2019-05-29T19:50:37.126Z,16.80
2019-05-29T19:52:09.227Z,16.80